createdAt,value
2022-08-28T00:01:23.910Z,88.28
2022-08-28T00:03:51.559Z,87.92
2022-08-28T00:06:19.219Z,86.98
2022-08-28T00:08:48.322Z,87.59
2022-08-28T00:11:16.037Z,87.78
2022-08-28T00:13:43.948Z,87.43
2022-08-28T00:16:11.802Z,87.43
2022-08-28T00:18:39.918Z,87.59
2022-08-28T00:21:07.665Z,87.05
2022-08-28T00:23:42.403Z,87.25
2022-08-28T00:26:32.501Z,87.86
2022-08-28T00:28:59.260Z,87.82
2022-08-28T00:31:27.010Z,87.64
2022-08-28T00:33:54.782Z,87.34
2022-08-28T00:36:22.551Z,87.15
2022-08-28T00:38:50.550Z,87.57
2022-08-28T00:41:24.740Z,87.78
2022-08-28T00:44:07.126Z,87.49
2022-08-28T00:46:34.878Z,87.89
2022-08-28T00:49:02.866Z,87.73
2022-08-28T00:51:48.164Z,87.87
2022-08-28T00:54:15.877Z,88.04
2022-08-28T00:56:44.913Z,88.05
2022-08-28T00:59:17.112Z,87.95
2022-08-28T01:01:45.456Z,87.88
2022-08-28T01:04:16.855Z,87.54
2022-08-28T01:06:45.523Z,87.90
2022-08-28T01:09:15.083Z,87.18
2022-08-28T01:11:51.248Z,87.19
2022-08-28T01:14:23.003Z,87.24
2022-08-28T01:16:55.429Z,87.76
2022-08-28T01:19:28.122Z,87.21
2022-08-28T01:22:01.830Z,87.41
2022-08-28T01:24:31.441Z,86.54
2022-08-28T01:26:59.305Z,87.24
2022-08-28T01:29:29.010Z,87.19
2022-08-28T01:31:56.692Z,87.06
2022-08-28T01:34:24.708Z,86.53
2022-08-28T01:36:52.318Z,86.67
2022-08-28T01:39:22.250Z,86.82
2022-08-28T01:41:53.028Z,85.80
2022-08-28T01:44:24.773Z,86.43
2022-08-28T01:46:54.150Z,85.88
2022-08-28T01:49:22.797Z,86.21
2022-08-28T01:51:50.434Z,86.92
2022-08-28T01:54:20.001Z,87.24
2022-08-28T01:56:48.531Z,86.50
2022-08-28T01:59:17.927Z,86.56
2022-08-28T02:01:45.796Z,86.67
2022-08-28T02:04:13.634Z,86.92
2022-08-28T02:06:42.194Z,86.81
2022-08-28T02:09:14.500Z,87.12
2022-08-28T02:11:46.560Z,86.57
2022-08-28T02:14:14.700Z,87.01
2022-08-28T02:16:43.678Z,86.49
2022-08-28T02:19:12.093Z,86.33
2022-08-28T02:21:39.918Z,85.78
2022-08-28T02:24:07.753Z,86.59
2022-08-28T02:26:35.495Z,86.14
2022-08-28T02:29:03.258Z,86.75
2022-08-28T02:31:31.124Z,86.39
2022-08-28T02:34:00.170Z,86.36
2022-08-28T02:36:27.884Z,86.75
2022-08-28T02:38:57.715Z,86.58
2022-08-28T02:41:25.755Z,87.05
2022-08-28T02:43:54.571Z,86.93
2022-08-28T02:46:22.320Z,86.83
2022-08-28T02:48:50.401Z,86.86
2022-08-28T02:51:20.061Z,87.18
2022-08-28T02:53:47.743Z,86.93
2022-08-28T02:56:15.529Z,87.00
2022-08-28T02:58:43.358Z,86.86
2022-08-28T03:01:13.400Z,86.77
2022-08-28T03:03:42.200Z,86.55
2022-08-28T03:06:12.148Z,86.48
2022-08-28T03:08:41.694Z,86.55
2022-08-28T03:11:09.660Z,86.76
2022-08-28T03:13:37.396Z,86.96
2022-08-28T03:16:05.731Z,87.12
2022-08-28T03:18:34.222Z,87.04
2022-08-28T03:21:02.069Z,86.77
2022-08-28T03:23:29.128Z,86.49
2022-08-28T03:26:01.137Z,87.12
2022-08-28T03:28:30.858Z,87.23
2022-08-28T03:30:59.195Z,86.85
2022-08-28T03:33:27.024Z,87.27
2022-08-28T03:35:56.099Z,87.59
2022-08-28T03:38:25.286Z,87.88
2022-08-28T03:40:53.843Z,87.52
2022-08-28T03:43:24.876Z,87.50
2022-08-28T03:45:58.101Z,87.08
2022-08-28T03:48:26.231Z,87.52
2022-08-28T03:50:54.660Z,87.34
2022-08-28T03:53:23.775Z,87.77
2022-08-28T03:55:51.829Z,88.14
2022-08-28T03:58:19.691Z,87.60
2022-08-28T04:00:49.871Z,87.93
2022-08-28T04:03:17.897Z,88.30
2022-08-28T04:05:46.961Z,87.97
2022-08-28T04:08:15.934Z,88.19
2022-08-28T04:10:44.035Z,87.96
2022-08-28T04:13:12.619Z,87.45
2022-08-28T04:15:41.316Z,87.52
2022-08-28T04:18:11.116Z,87.86
2022-08-28T04:20:39.343Z,88.31
2022-08-28T04:23:09.797Z,87.96
2022-08-28T04:25:37.523Z,87.73
2022-08-28T04:28:05.168Z,88.71
2022-08-28T04:30:32.874Z,88.33
2022-08-28T04:33:00.448Z,88.26
2022-08-28T04:35:29.469Z,88.95
2022-08-28T04:37:58.980Z,88.77
2022-08-28T04:40:26.895Z,88.47
2022-08-28T04:42:54.666Z,88.84
2022-08-28T04:45:22.496Z,89.12
2022-08-28T04:47:50.181Z,89.09
2022-08-28T04:50:18.062Z,89.56
2022-08-28T04:52:47.181Z,89.65
2022-08-28T04:55:15.450Z,89.15
2022-08-28T04:57:45.942Z,89.42
2022-08-28T05:00:14.201Z,89.88
2022-08-28T05:02:42.070Z,89.62
2022-08-28T05:05:11.769Z,89.66
2022-08-28T05:07:39.495Z,89.88
2022-08-28T05:10:11.136Z,88.65
2022-08-28T05:12:38.875Z,89.28
2022-08-28T05:15:07.602Z,89.90
2022-08-28T05:17:36.216Z,89.81
2022-08-28T05:20:05.780Z,89.66
2022-08-28T05:22:33.919Z,90.10
2022-08-28T05:25:01.925Z,89.72
2022-08-28T05:27:30.971Z,89.01
2022-08-28T05:30:01.888Z,89.40
2022-08-28T05:32:29.998Z,89.73
2022-08-28T05:34:57.714Z,89.15
2022-08-28T05:37:25.462Z,89.53
2022-08-28T05:39:53.132Z,88.91
2022-08-28T05:42:20.841Z,88.13
2022-08-28T05:44:49.881Z,87.87
2022-08-28T05:47:22.433Z,88.20
2022-08-28T05:49:50.084Z,88.08
2022-08-28T05:52:20.096Z,87.84
2022-08-28T05:54:48.520Z,87.86
2022-08-28T05:57:16.174Z,87.78
2022-08-28T05:59:44.074Z,87.58
2022-08-28T06:02:13.108Z,87.36
2022-08-28T06:04:40.916Z,86.56
2022-08-28T06:07:12.003Z,87.30
2022-08-28T06:09:39.724Z,86.91
2022-08-28T06:12:07.647Z,86.98
2022-08-28T06:14:35.905Z,86.28
2022-08-28T06:17:04.285Z,86.20
2022-08-28T06:19:39.320Z,85.51
2022-08-28T06:22:09.654Z,85.09
2022-08-28T06:24:37.942Z,85.11
2022-08-28T06:27:06.160Z,85.30
2022-08-28T06:29:34.076Z,85.15
2022-08-28T06:32:04.409Z,84.39
2022-08-28T06:34:33.534Z,84.34
2022-08-28T06:37:01.315Z,84.14
2022-08-28T06:39:29.026Z,83.77
2022-08-28T06:41:56.666Z,83.57
2022-08-28T06:44:24.332Z,83.07
2022-08-28T06:46:54.277Z,82.90
2022-08-28T06:49:22.351Z,83.13
2022-08-28T06:51:51.464Z,81.96
2022-08-28T06:54:22.725Z,81.49
2022-08-28T06:56:50.818Z,80.39
2022-08-28T06:59:18.458Z,80.49
2022-08-28T07:01:46.249Z,80.54
2022-08-28T07:04:14.788Z,80.68
2022-08-28T07:06:46.913Z,80.34
2022-08-28T07:09:16.720Z,79.58
2022-08-28T07:11:46.597Z,79.32
2022-08-28T07:14:14.505Z,79.30
2022-08-28T07:16:42.218Z,79.63
2022-08-28T07:19:11.923Z,79.09
2022-08-28T07:21:41.721Z,78.92
2022-08-28T07:24:10.571Z,79.23
2022-08-28T07:26:41.419Z,78.58
2022-08-28T07:29:11.056Z,78.61
2022-08-28T07:31:41.108Z,78.02
2022-08-28T07:34:09.757Z,77.36
2022-08-28T07:36:37.984Z,75.47
2022-08-28T07:39:06.695Z,76.02
2022-08-28T07:41:38.959Z,75.91
2022-08-28T07:44:26.474Z,74.89
2022-08-28T07:46:54.853Z,75.19
2022-08-28T07:49:23.226Z,75.45
2022-08-28T07:51:54.132Z,75.80
2022-08-28T07:54:22.472Z,75.85
2022-08-28T07:56:51.295Z,76.61
2022-08-28T07:59:22.077Z,75.54
2022-08-28T08:01:51.212Z,75.15
2022-08-28T08:04:20.949Z,75.53
2022-08-28T08:06:49.131Z,74.54
2022-08-28T08:09:19.446Z,74.62
2022-08-28T08:11:49.110Z,73.48
2022-08-28T08:14:17.971Z,73.65
2022-08-28T08:16:47.822Z,72.70
2022-08-28T08:19:17.573Z,72.50
2022-08-28T08:21:48.262Z,72.80
2022-08-28T08:24:22.213Z,73.32
2022-08-28T08:26:58.795Z,72.91
2022-08-28T08:29:29.240Z,73.14
2022-08-28T08:32:02.862Z,72.82
2022-08-28T08:34:31.210Z,73.00
2022-08-28T08:36:59.467Z,72.38
2022-08-28T08:39:27.420Z,72.39
2022-08-28T08:41:58.279Z,72.29
2022-08-28T08:44:33.504Z,72.76
2022-08-28T08:47:14.113Z,73.20
2022-08-28T08:49:45.234Z,72.75
2022-08-28T08:52:36.039Z,72.29
2022-08-28T08:55:22.169Z,71.38
2022-08-28T08:57:55.391Z,70.99
2022-08-28T09:00:23.722Z,70.44
2022-08-28T09:02:58.369Z,71.32
2022-08-28T09:05:39.649Z,71.26
2022-08-28T09:08:08.694Z,70.67
2022-08-28T09:10:40.596Z,70.89
2022-08-28T09:13:14.264Z,70.74
2022-08-28T09:15:48.696Z,69.15
2022-08-28T09:18:22.555Z,68.59
2022-08-28T09:20:51.792Z,68.40
2022-08-28T09:23:21.332Z,68.45
2022-08-28T09:25:56.344Z,68.17
2022-08-28T09:28:29.716Z,67.15
2022-08-28T09:31:03.577Z,67.72
2022-08-28T09:33:37.491Z,67.17
2022-08-28T09:36:31.932Z,67.07
2022-08-28T09:39:09.187Z,66.32
2022-08-28T09:41:57.024Z,66.10
2022-08-28T09:44:25.333Z,65.45
2022-08-28T09:46:53.766Z,64.79
2022-08-28T09:49:29.038Z,63.34
2022-08-28T09:51:59.474Z,63.43
2022-08-28T09:54:33.858Z,62.43
2022-08-28T09:57:03.677Z,62.68
2022-08-28T09:59:32.152Z,62.91
2022-08-28T10:02:17.355Z,63.01
2022-08-28T10:04:58.002Z,61.86
2022-08-28T10:07:38.923Z,61.96
2022-08-28T10:10:24.891Z,61.19
2022-08-28T10:13:02.456Z,61.17
2022-08-28T10:15:39.939Z,60.15
2022-08-28T10:18:30.951Z,59.76
2022-08-28T10:21:05.862Z,59.92
2022-08-28T10:23:40.599Z,60.21
2022-08-28T10:28:46.870Z,59.54
2022-08-28T10:31:20.569Z,59.16
2022-08-28T10:34:12.742Z,59.04
2022-08-28T10:36:42.548Z,58.64
2022-08-28T10:39:22.895Z,59.16
2022-08-28T10:41:54.045Z,59.42
2022-08-28T10:44:27.171Z,59.89
2022-08-28T10:46:57.123Z,59.64
2022-08-28T10:49:28.447Z,58.20
2022-08-28T10:52:02.244Z,57.37
2022-08-28T10:54:38.230Z,57.02
2022-08-28T10:57:11.196Z,57.11
2022-08-28T10:59:41.906Z,57.37
2022-08-28T11:02:12.576Z,57.57
2022-08-28T11:04:40.834Z,57.29
2022-08-28T11:07:12.693Z,56.49
2022-08-28T11:09:42.782Z,55.61
2022-08-28T11:12:35.476Z,55.96
2022-08-28T11:15:44.907Z,56.19
2022-08-28T11:19:00.784Z,54.89
2022-08-28T11:21:30.142Z,55.15
2022-08-28T11:24:02.459Z,54.67
2022-08-28T11:26:35.014Z,54.25
2022-08-28T11:29:05.039Z,53.89
2022-08-28T11:31:38.934Z,54.31
2022-08-28T11:34:07.750Z,54.89
2022-08-28T11:36:59.964Z,55.42
2022-08-28T11:39:29.137Z,54.69
2022-08-28T11:42:38.534Z,55.12
2022-08-28T11:45:07.535Z,54.78
2022-08-28T11:47:43.992Z,54.59
2022-08-28T11:50:20.508Z,54.83
2022-08-28T11:53:11.079Z,55.83
2022-08-28T11:55:52.175Z,55.04
2022-08-28T11:58:24.060Z,56.31
2022-08-28T12:00:55.117Z,55.05
2022-08-28T12:03:28.750Z,54.57
2022-08-28T12:05:58.031Z,54.74
2022-08-28T12:09:04.953Z,54.02
2022-08-28T12:11:58.164Z,54.46
2022-08-28T12:15:07.677Z,53.63
2022-08-28T12:17:51.154Z,53.93
2022-08-28T12:20:38.709Z,53.46
2022-08-28T12:23:34.614Z,53.61
2022-08-28T12:26:04.224Z,53.10
2022-08-28T12:28:35.116Z,52.35
2022-08-28T12:31:45.816Z,52.46
2022-08-28T12:34:15.977Z,52.37
2022-08-28T12:36:43.706Z,52.42
2022-08-28T12:39:18.281Z,52.93
2022-08-28T12:41:46.309Z,52.41
2022-08-28T12:44:16.022Z,52.12
2022-08-28T12:46:44.758Z,52.32
2022-08-28T12:49:31.360Z,52.00
2022-08-28T12:52:11.211Z,52.40
2022-08-28T12:54:44.877Z,52.54
2022-08-28T12:57:14.719Z,51.98
2022-08-28T12:59:45.434Z,51.84
2022-08-28T13:02:20.399Z,51.10
2022-08-28T13:04:54.706Z,51.81
2022-08-28T13:07:27.822Z,52.11
2022-08-28T13:09:57.286Z,51.31
2022-08-28T13:12:37.818Z,51.37
2022-08-28T13:15:49.920Z,51.31
2022-08-28T13:18:52.107Z,51.34
2022-08-28T13:21:33.047Z,51.35
2022-08-28T13:24:17.834Z,51.55
2022-08-28T13:26:45.541Z,51.11
2022-08-28T13:29:19.496Z,51.75
2022-08-28T13:31:57.291Z,51.95
2022-08-28T13:34:26.961Z,51.58
2022-08-28T13:36:58.020Z,51.84
2022-08-28T13:39:25.704Z,52.49
2022-08-28T13:41:55.000Z,52.86
2022-08-28T13:44:29.308Z,52.98
2022-08-28T13:46:59.714Z,53.45
2022-08-28T13:49:28.672Z,52.80
2022-08-28T13:51:57.777Z,53.18
2022-08-28T13:54:26.025Z,52.50
2022-08-28T13:56:55.934Z,52.47
2022-08-28T13:59:24.331Z,52.50
2022-08-28T14:02:11.896Z,52.36
2022-08-28T14:04:41.164Z,52.53
2022-08-28T14:07:09.005Z,52.49
2022-08-28T14:09:37.107Z,52.52
2022-08-28T14:12:06.916Z,51.81
2022-08-28T14:14:34.800Z,51.81
2022-08-28T14:17:02.508Z,51.93
2022-08-28T14:19:30.778Z,51.78
2022-08-28T14:21:59.929Z,51.21
2022-08-28T14:24:27.647Z,51.41
2022-08-28T14:26:55.566Z,50.00
2022-08-28T14:29:25.905Z,50.98
2022-08-28T14:31:54.322Z,51.54
2022-08-28T14:34:23.712Z,51.38
2022-08-28T14:36:55.398Z,51.76
2022-08-28T14:39:27.019Z,51.97
2022-08-28T14:41:55.871Z,51.86
2022-08-28T14:44:25.731Z,51.50
2022-08-28T14:46:57.094Z,51.54
2022-08-28T14:49:25.836Z,51.41
2022-08-28T14:51:54.087Z,51.37
2022-08-28T14:56:51.856Z,51.07
2022-08-28T14:59:24.315Z,51.01
2022-08-28T15:01:53.401Z,50.31
2022-08-28T15:04:23.582Z,50.21
2022-08-28T15:06:52.033Z,50.33
2022-08-28T15:09:20.221Z,49.94
2022-08-28T15:11:47.914Z,50.70
2022-08-28T15:14:17.084Z,50.88
2022-08-28T15:16:47.789Z,50.52
2022-08-28T15:19:17.985Z,50.17
2022-08-28T15:21:47.863Z,50.37
2022-08-28T15:24:16.825Z,49.88
2022-08-28T15:26:44.869Z,50.12
2022-08-28T15:29:12.675Z,50.03
2022-08-28T15:31:43.857Z,50.28
2022-08-28T15:34:14.965Z,49.86
2022-08-28T15:36:43.164Z,49.99
2022-08-28T15:39:28.910Z,50.29
2022-08-28T15:41:57.250Z,50.15
2022-08-28T15:44:25.100Z,50.06
2022-08-28T15:46:55.901Z,50.35
2022-08-28T15:49:24.272Z,50.71
2022-08-28T15:51:52.546Z,50.20
2022-08-28T15:54:21.087Z,50.41
2022-08-28T15:56:49.627Z,50.46
2022-08-28T15:59:18.652Z,50.77
2022-08-28T16:01:46.456Z,50.32
2022-08-28T16:06:43.317Z,50.79
2022-08-28T16:09:11.764Z,50.79
2022-08-28T16:11:41.055Z,50.94
2022-08-28T16:14:09.193Z,51.01
2022-08-28T16:16:37.129Z,51.01
2022-08-28T16:19:05.114Z,51.10
2022-08-28T16:21:33.142Z,50.88
2022-08-28T16:24:02.469Z,51.23
2022-08-28T16:28:59.960Z,50.36
2022-08-28T16:33:56.000Z,49.91
2022-08-28T16:36:25.238Z,50.21
2022-08-28T16:39:00.343Z,50.56
2022-08-28T16:41:33.706Z,49.84
2022-08-28T16:44:01.332Z,50.21
2022-08-28T16:46:29.466Z,49.99
2022-08-28T16:48:57.356Z,50.34
2022-08-28T16:51:27.048Z,50.25
2022-08-28T16:53:55.134Z,50.57
2022-08-28T16:56:24.096Z,50.20
2022-08-28T16:58:53.635Z,50.23
2022-08-28T17:01:24.095Z,50.52
2022-08-28T17:03:52.864Z,50.56
2022-08-28T17:06:23.615Z,50.38
2022-08-28T17:08:56.403Z,50.27
2022-08-28T17:11:24.760Z,50.39
2022-08-28T17:13:53.862Z,50.11
2022-08-28T17:16:22.826Z,50.41
2022-08-28T17:18:52.113Z,50.36
2022-08-28T17:21:40.155Z,50.75
2022-08-28T17:24:08.569Z,50.43
2022-08-28T17:26:36.383Z,50.10
2022-08-28T17:29:05.816Z,50.85
2022-08-28T17:31:33.706Z,49.76
2022-08-28T17:34:01.482Z,49.68
2022-08-28T17:36:33.620Z,49.56
2022-08-28T17:39:02.984Z,49.47
2022-08-28T17:41:31.550Z,49.74
2022-08-28T17:44:01.054Z,50.02
2022-08-28T17:46:34.094Z,49.45
2022-08-28T17:49:05.984Z,49.91
2022-08-28T17:51:42.450Z,50.23
2022-08-28T17:54:13.032Z,50.13
2022-08-28T17:56:41.182Z,49.84
2022-08-28T17:59:09.181Z,49.97
2022-08-28T18:01:38.822Z,50.21
2022-08-28T18:04:06.657Z,50.38
2022-08-28T18:06:34.882Z,50.55
2022-08-28T18:09:02.967Z,50.92
2022-08-28T18:11:31.015Z,50.89
2022-08-28T18:13:59.654Z,50.88
2022-08-28T18:16:31.415Z,50.52
2022-08-28T18:19:01.118Z,50.99
2022-08-28T18:21:30.216Z,51.23
2022-08-28T18:23:58.273Z,51.07
2022-08-28T18:26:26.074Z,50.66
2022-08-28T18:28:53.668Z,50.83
2022-08-28T18:31:24.095Z,50.98
2022-08-28T18:33:52.084Z,50.95
2022-08-28T18:36:23.037Z,50.71
2022-08-28T18:38:51.341Z,51.24
2022-08-28T18:41:20.353Z,50.68
2022-08-28T18:43:48.303Z,50.61
2022-08-28T18:46:16.012Z,50.67
2022-08-28T18:48:43.816Z,51.21
2022-08-28T18:51:13.235Z,51.14
2022-08-28T18:53:43.382Z,51.08
2022-08-28T18:56:12.159Z,51.39
2022-08-28T18:58:40.537Z,51.49
2022-08-28T19:01:09.306Z,51.82
2022-08-28T19:03:37.686Z,51.95
2022-08-28T19:06:06.913Z,52.08
2022-08-28T19:08:36.711Z,52.38
2022-08-28T19:11:08.715Z,52.34
2022-08-28T19:13:36.722Z,52.35
2022-08-28T19:16:05.298Z,52.23
2022-08-28T19:18:33.319Z,52.65
2022-08-28T19:21:05.736Z,52.47
2022-08-28T19:23:33.650Z,52.08
2022-08-28T19:26:01.368Z,52.51
2022-08-28T19:28:30.362Z,52.13
2022-08-28T19:30:58.083Z,52.29
2022-08-28T19:33:26.090Z,51.97
2022-08-28T19:35:54.931Z,52.46
2022-08-28T19:38:22.617Z,51.99
2022-08-28T19:40:50.490Z,52.58
2022-08-28T19:43:18.406Z,52.62
2022-08-28T19:45:47.467Z,52.49
2022-08-28T19:48:15.676Z,52.52
2022-08-28T19:50:43.884Z,52.83
2022-08-28T19:53:11.533Z,52.65
2022-08-28T19:55:41.287Z,53.14
2022-08-28T19:58:10.302Z,53.02
2022-08-28T20:00:38.026Z,53.23
2022-08-28T20:03:07.123Z,52.94
2022-08-28T20:05:34.855Z,53.13
2022-08-28T20:08:06.355Z,53.55
2022-08-28T20:10:34.092Z,53.38
2022-08-28T20:13:01.684Z,53.30
2022-08-28T20:15:29.311Z,53.71
2022-08-28T20:17:57.739Z,54.10
2022-08-28T20:20:29.902Z,54.07
2022-08-28T20:22:57.973Z,54.34
2022-08-28T20:25:26.887Z,54.25
2022-08-28T20:27:58.333Z,54.88
2022-08-28T20:30:29.343Z,54.94
2022-08-28T20:32:57.162Z,55.02
2022-08-28T20:35:27.480Z,55.37
2022-08-28T20:37:55.691Z,55.28
2022-08-28T20:40:24.273Z,55.25
2022-08-28T20:42:52.362Z,55.24
2022-08-28T20:45:20.891Z,55.05
2022-08-28T20:47:49.605Z,55.24
2022-08-28T20:50:17.423Z,55.27
2022-08-28T20:52:46.599Z,55.50
2022-08-28T20:55:14.923Z,55.03
2022-08-28T20:57:42.939Z,55.59
2022-08-28T21:00:12.495Z,55.79
2022-08-28T21:02:40.290Z,55.90
2022-08-28T21:05:08.524Z,56.03
2022-08-28T21:07:36.324Z,56.06
2022-08-28T21:10:07.929Z,56.29
2022-08-28T21:12:36.369Z,56.14
2022-08-28T21:15:04.363Z,56.13
2022-08-28T21:17:32.065Z,56.22
2022-08-28T21:20:01.479Z,56.20
2022-08-28T21:22:31.332Z,56.59
2022-08-28T21:24:59.158Z,56.70
2022-08-28T21:27:28.422Z,56.83
2022-08-28T21:29:58.018Z,56.95
2022-08-28T21:32:25.814Z,57.01
2022-08-28T21:34:54.506Z,56.93
2022-08-28T21:37:22.622Z,57.14
2022-08-28T21:39:50.742Z,57.19
2022-08-28T21:42:18.399Z,57.89
2022-08-28T21:44:51.865Z,57.79
2022-08-28T21:47:21.389Z,57.87
2022-08-28T21:49:49.536Z,58.23
2022-08-28T21:52:18.132Z,58.43
2022-08-28T21:54:45.952Z,59.11
2022-08-28T21:57:13.697Z,59.01
2022-08-28T21:59:41.649Z,59.20
2022-08-28T22:02:10.927Z,59.66
2022-08-28T22:04:38.739Z,59.96
2022-08-28T22:07:06.521Z,60.44
2022-08-28T22:09:34.347Z,60.46
2022-08-28T22:12:02.064Z,60.82
2022-08-28T22:14:29.729Z,60.61
2022-08-28T22:16:57.631Z,61.21
2022-08-28T22:19:26.816Z,61.42
2022-08-28T22:22:12.068Z,61.39
2022-08-28T22:24:39.725Z,61.28
2022-08-28T22:27:07.593Z,61.09
2022-08-28T22:29:37.163Z,61.56
2022-08-28T22:32:05.050Z,61.65
2022-08-28T22:34:39.084Z,61.67
2022-08-28T22:37:06.937Z,61.52
2022-08-28T22:39:35.077Z,62.05
2022-08-28T22:42:02.820Z,62.25
2022-08-28T22:44:31.102Z,62.34
2022-08-28T22:46:59.154Z,62.77
2022-08-28T22:49:27.261Z,62.48
2022-08-28T22:51:56.266Z,62.80
2022-08-28T22:54:23.997Z,63.19
2022-08-28T22:56:51.655Z,62.66
2022-08-28T22:59:19.566Z,63.13
2022-08-28T23:01:47.404Z,62.95
2022-08-28T23:04:15.953Z,63.26
2022-08-28T23:06:43.617Z,62.92
2022-08-28T23:09:12.822Z,63.02
2022-08-28T23:11:40.411Z,63.06
2022-08-28T23:14:08.056Z,62.87
2022-08-28T23:16:36.082Z,63.39
2022-08-28T23:19:07.867Z,63.42
2022-08-28T23:21:43.403Z,63.51
2022-08-28T23:24:13.449Z,63.92
2022-08-28T23:26:41.663Z,63.65
2022-08-28T23:29:09.364Z,63.90
2022-08-28T23:31:37.538Z,63.87
2022-08-28T23:34:06.121Z,63.82
2022-08-28T23:36:35.792Z,63.94
2022-08-28T23:39:03.666Z,63.92
2022-08-28T23:41:32.760Z,63.96
2022-08-28T23:44:02.336Z,64.04
2022-08-28T23:46:31.932Z,64.28
2022-08-28T23:48:59.639Z,64.25
2022-08-28T23:51:27.459Z,64.46
2022-08-28T23:53:55.869Z,64.24
2022-08-28T23:56:28.002Z,64.63
2022-08-28T23:58:57.279Z,64.54
